createdAt,value
2022-09-15T00:00:43.672Z,12.47
2022-09-15T00:02:46.062Z,12.48
2022-09-15T00:04:47.576Z,12.50
2022-09-15T00:06:49.264Z,12.50
2022-09-15T00:08:50.725Z,12.50
2022-09-15T00:10:55.607Z,12.51
2022-09-15T00:12:57.046Z,12.50
2022-09-15T00:14:58.715Z,12.49
2022-09-15T00:17:00.245Z,12.47
2022-09-15T00:19:01.930Z,12.45
2022-09-15T00:21:08.420Z,12.45
2022-09-15T00:23:11.128Z,12.44
2022-09-15T00:25:13.192Z,12.41
2022-09-15T00:27:16.022Z,12.44
2022-09-15T00:29:17.470Z,12.42
2022-09-15T00:31:21.548Z,12.43
2022-09-15T00:33:23.275Z,12.43
2022-09-15T00:35:24.747Z,12.41
2022-09-15T00:37:26.231Z,12.40
2022-09-15T00:39:27.979Z,12.40
2022-09-15T00:41:30.097Z,12.40
2022-09-15T00:43:45.626Z,12.40
2022-09-15T00:45:48.424Z,12.39
2022-09-15T00:47:49.998Z,12.40
2022-09-15T00:49:59.177Z,12.42
2022-09-15T00:52:07.242Z,12.39
2022-09-15T00:54:15.245Z,12.35
2022-09-15T00:56:18.632Z,12.24
2022-09-15T00:58:36.875Z,12.24
2022-09-15T01:00:44.099Z,12.24
2022-09-15T01:02:48.231Z,12.25
2022-09-15T01:04:57.458Z,12.23
2022-09-15T01:07:03.840Z,12.22
2022-09-15T01:09:16.797Z,12.22
2022-09-15T01:11:18.417Z,12.24
2022-09-15T01:13:19.889Z,12.29
2022-09-15T01:15:25.781Z,12.34
2022-09-15T01:17:40.405Z,12.36
2022-09-15T01:20:06.583Z,12.38
2022-09-15T01:22:45.089Z,12.38
2022-09-15T01:25:01.738Z,12.41
2022-09-15T01:27:41.208Z,12.43
2022-09-15T01:30:06.421Z,12.44
2022-09-15T01:33:05.787Z,12.44
2022-09-15T01:35:24.980Z,12.47
2022-09-15T01:37:32.531Z,12.48
2022-09-15T01:39:40.035Z,12.50
2022-09-15T01:41:49.461Z,12.51
2022-09-15T01:43:59.956Z,12.52
2022-09-15T01:46:03.195Z,12.54
2022-09-15T01:48:07.744Z,12.54
2022-09-15T01:50:15.317Z,12.53
2022-09-15T01:52:19.364Z,12.52
2022-09-15T01:54:26.490Z,12.53
2022-09-15T01:56:28.000Z,12.54
2022-09-15T01:58:29.573Z,12.57
2022-09-15T02:00:38.881Z,12.60
2022-09-15T02:02:52.695Z,12.61
2022-09-15T02:05:06.048Z,12.64
2022-09-15T02:07:44.916Z,12.65
2022-09-15T02:10:02.812Z,12.68
2022-09-15T02:12:10.916Z,12.70
2022-09-15T02:14:44.799Z,12.73
2022-09-15T02:16:49.726Z,12.75
2022-09-15T02:19:03.471Z,12.79
2022-09-15T02:21:12.110Z,12.82
2022-09-15T02:23:35.308Z,12.81
2022-09-15T02:25:44.010Z,12.86
2022-09-15T02:27:47.889Z,12.86
2022-09-15T02:29:52.770Z,12.90
2022-09-15T02:31:57.430Z,12.94
2022-09-15T02:34:03.243Z,12.99
2022-09-15T02:36:05.876Z,13.01
2022-09-15T02:38:09.942Z,13.04
2022-09-15T02:40:11.517Z,13.07
2022-09-15T02:42:21.765Z,13.10
2022-09-15T02:44:23.393Z,13.12
2022-09-15T02:46:24.878Z,13.16
2022-09-15T02:48:26.422Z,13.19
2022-09-15T02:50:27.929Z,13.23
2022-09-15T02:52:29.454Z,13.25
2022-09-15T02:54:30.938Z,13.25
2022-09-15T02:56:32.367Z,13.26
2022-09-15T02:58:34.818Z,13.27
2022-09-15T03:00:38.536Z,13.28
2022-09-15T03:02:41.844Z,13.29
2022-09-15T03:04:43.279Z,13.30
2022-09-15T03:06:44.836Z,13.31
2022-09-15T03:08:52.542Z,13.32
2022-09-15T03:10:57.334Z,13.33
2022-09-15T03:12:58.869Z,13.34
2022-09-15T03:15:00.290Z,13.35
2022-09-15T03:17:02.742Z,13.36
2022-09-15T03:19:04.489Z,13.37
2022-09-15T03:21:11.384Z,13.38
2022-09-15T03:23:12.954Z,13.39
2022-09-15T03:25:14.435Z,13.39
2022-09-15T03:27:15.873Z,13.39
2022-09-15T03:29:17.357Z,13.39
2022-09-15T03:31:19.905Z,13.39
2022-09-15T03:33:22.759Z,13.39
2022-09-15T03:35:24.211Z,13.38
2022-09-15T03:37:26.081Z,13.38
2022-09-15T03:39:27.554Z,13.38
2022-09-15T03:41:29.324Z,13.38
2022-09-15T03:43:32.098Z,13.38
2022-09-15T03:45:33.589Z,13.36
2022-09-15T03:47:35.056Z,13.36
2022-09-15T03:49:36.529Z,13.37
2022-09-15T03:51:38.185Z,13.39
2022-09-15T03:53:41.831Z,13.42
2022-09-15T03:55:45.351Z,13.42
2022-09-15T03:57:46.793Z,13.44
2022-09-15T03:59:48.283Z,13.46
2022-09-15T04:01:50.952Z,13.44
2022-09-15T04:03:52.445Z,13.44
2022-09-15T04:05:53.858Z,13.46
2022-09-15T04:07:55.311Z,13.44
2022-09-15T04:09:57.244Z,13.47
2022-09-15T04:11:58.698Z,13.46
2022-09-15T04:14:00.290Z,13.48
2022-09-15T04:16:03.882Z,13.46
2022-09-15T04:18:05.480Z,13.48
2022-09-15T04:20:07.749Z,13.47
2022-09-15T04:22:13.151Z,13.48
2022-09-15T04:24:17.181Z,13.48
2022-09-15T04:26:24.771Z,13.48
2022-09-15T04:28:27.648Z,13.49
2022-09-15T04:30:29.112Z,13.51
2022-09-15T04:32:31.389Z,13.52
2022-09-15T04:34:32.825Z,13.51
2022-09-15T04:36:34.277Z,13.55
2022-09-15T04:38:36.171Z,13.56
2022-09-15T04:40:38.197Z,13.58
2022-09-15T04:42:39.714Z,13.59
2022-09-15T04:44:41.344Z,13.62
2022-09-15T04:46:42.809Z,13.63
2022-09-15T04:48:46.056Z,13.65
2022-09-15T04:50:47.626Z,13.67
2022-09-15T04:52:49.068Z,13.67
2022-09-15T04:54:50.542Z,13.67
2022-09-15T04:56:51.971Z,13.67
2022-09-15T04:59:00.891Z,13.68
2022-09-15T05:01:19.129Z,13.68
2022-09-15T05:03:20.692Z,13.68
2022-09-15T05:05:22.505Z,13.69
2022-09-15T05:07:23.940Z,13.71
2022-09-15T05:09:26.475Z,13.72
2022-09-15T05:11:28.390Z,13.72
2022-09-15T05:13:29.933Z,13.70
2022-09-15T05:15:31.412Z,13.73
2022-09-15T05:17:33.441Z,13.74
2022-09-15T05:19:34.968Z,13.75
2022-09-15T05:21:36.532Z,13.76
2022-09-15T05:23:38.427Z,13.76
2022-09-15T05:25:39.919Z,13.77
2022-09-15T05:27:41.385Z,13.76
2022-09-15T05:29:43.102Z,13.74
2022-09-15T05:31:44.600Z,13.74
2022-09-15T05:33:47.914Z,13.72
2022-09-15T05:35:57.825Z,13.72
2022-09-15T05:37:59.263Z,13.70
2022-09-15T05:40:03.165Z,13.74
2022-09-15T05:42:06.965Z,13.73
2022-09-15T05:44:10.192Z,13.75
2022-09-15T05:46:12.967Z,13.78
2022-09-15T05:48:14.436Z,13.78
2022-09-15T05:50:16.257Z,13.80
2022-09-15T05:52:17.721Z,13.82
2022-09-15T05:54:19.187Z,13.82
2022-09-15T05:56:20.812Z,13.83
2022-09-15T05:58:22.357Z,13.87
2022-09-15T06:00:24.642Z,13.87
2022-09-15T06:02:26.159Z,13.90
2022-09-15T06:04:27.676Z,13.91
2022-09-15T06:06:31.737Z,13.91
2022-09-15T06:08:36.986Z,13.92
2022-09-15T06:10:39.434Z,13.96
2022-09-15T06:12:40.908Z,14.00
2022-09-15T06:14:44.438Z,14.01
2022-09-15T06:16:45.920Z,14.03
2022-09-15T06:18:49.620Z,14.06
2022-09-15T06:20:51.051Z,14.08
2022-09-15T06:22:56.549Z,14.10
2022-09-15T06:24:57.973Z,14.11
2022-09-15T06:26:59.519Z,14.13
2022-09-15T06:29:02.879Z,14.15
2022-09-15T06:31:04.640Z,14.17
2022-09-15T06:33:06.102Z,14.19
2022-09-15T06:35:07.838Z,14.23
2022-09-15T06:37:09.416Z,14.28
2022-09-15T06:39:10.950Z,14.31
2022-09-15T06:41:13.402Z,14.37
2022-09-15T06:43:14.839Z,14.42
2022-09-15T06:45:16.374Z,14.44
2022-09-15T06:47:17.967Z,14.44
2022-09-15T06:49:19.998Z,14.47
2022-09-15T06:51:23.538Z,14.49
2022-09-15T06:53:24.993Z,14.49
2022-09-15T06:55:26.421Z,14.49
2022-09-15T06:57:28.403Z,14.52
2022-09-15T06:59:29.878Z,14.54
2022-09-15T07:01:32.283Z,14.54
2022-09-15T07:03:34.216Z,14.57
2022-09-15T07:05:35.727Z,14.60
2022-09-15T07:07:37.185Z,14.64
2022-09-15T07:09:41.145Z,14.70
2022-09-15T07:11:43.039Z,14.73
2022-09-15T07:13:44.498Z,14.75
2022-09-15T07:15:59.996Z,14.79
2022-09-15T07:18:01.495Z,14.83
2022-09-15T07:20:03.498Z,14.87
2022-09-15T07:22:05.112Z,14.91
2022-09-15T07:24:07.794Z,14.93
2022-09-15T07:26:10.773Z,14.97
2022-09-15T07:28:12.737Z,14.98
2022-09-15T07:30:14.233Z,15.00
2022-09-15T07:32:15.668Z,15.04
2022-09-15T07:34:17.363Z,15.08
2022-09-15T07:36:19.226Z,15.09
2022-09-15T07:38:20.658Z,15.08
2022-09-15T07:40:22.259Z,15.11
2022-09-15T07:42:23.870Z,15.13
2022-09-15T07:44:25.379Z,15.15
2022-09-15T07:46:31.421Z,15.14
2022-09-15T07:48:33.344Z,15.21
2022-09-15T07:50:34.800Z,15.31
2022-09-15T07:52:36.213Z,15.34
2022-09-15T07:54:37.709Z,15.38
2022-09-15T07:56:39.152Z,15.47
2022-09-15T07:58:40.732Z,15.56
2022-09-15T08:00:42.207Z,15.65
2022-09-15T08:02:43.665Z,15.73
2022-09-15T08:04:45.242Z,15.77
2022-09-15T08:06:46.702Z,15.79
2022-09-15T08:08:49.091Z,15.77
2022-09-15T08:10:50.524Z,15.80
2022-09-15T08:12:52.824Z,15.88
2022-09-15T08:14:54.322Z,16.00
2022-09-15T08:16:55.772Z,16.10
2022-09-15T08:18:57.255Z,16.21
2022-09-15T08:20:58.876Z,16.31
2022-09-15T08:23:00.617Z,16.43
2022-09-15T08:25:02.101Z,16.51
2022-09-15T08:27:04.613Z,16.51
2022-09-15T08:29:06.054Z,16.48
2022-09-15T08:31:13.967Z,16.46
2022-09-15T08:33:15.708Z,16.42
2022-09-15T08:35:17.664Z,16.45
2022-09-15T08:37:19.123Z,16.49
2022-09-15T08:39:20.658Z,16.48
2022-09-15T08:41:24.385Z,16.44
2022-09-15T08:43:29.158Z,16.42
2022-09-15T08:45:41.919Z,16.43
2022-09-15T08:47:47.548Z,16.46
2022-09-15T08:49:51.876Z,16.51
2022-09-15T08:51:58.157Z,16.58
2022-09-15T08:54:07.323Z,16.66
2022-09-15T08:56:17.137Z,16.71
2022-09-15T08:58:24.469Z,16.76
2022-09-15T09:00:26.892Z,16.83
2022-09-15T09:02:48.242Z,16.89
2022-09-15T09:05:30.115Z,16.84
2022-09-15T09:07:40.853Z,16.77
2022-09-15T09:09:51.747Z,16.68
2022-09-15T09:12:18.261Z,16.58
2022-09-15T09:14:41.449Z,16.43
2022-09-15T09:16:57.399Z,16.29
2022-09-15T09:19:20.813Z,16.12
2022-09-15T09:21:27.696Z,15.85
2022-09-15T09:23:32.435Z,15.58
2022-09-15T09:25:36.106Z,15.39
2022-09-15T09:27:38.893Z,15.26
2022-09-15T09:29:49.376Z,15.18
2022-09-15T09:31:54.824Z,15.17
2022-09-15T09:34:15.598Z,15.22
2022-09-15T09:36:17.318Z,15.26
2022-09-15T09:38:28.322Z,15.30
2022-09-15T09:40:32.762Z,15.36
2022-09-15T09:42:38.105Z,15.41
2022-09-15T09:44:40.602Z,15.45
2022-09-15T09:46:42.392Z,15.47
2022-09-15T09:49:10.396Z,15.48
2022-09-15T09:51:39.782Z,15.43
2022-09-15T09:53:42.386Z,15.45
2022-09-15T09:55:45.839Z,15.49
2022-09-15T09:57:47.314Z,15.53
2022-09-15T09:59:50.500Z,15.62
2022-09-15T10:02:10.861Z,15.74
2022-09-15T10:04:17.994Z,15.94
2022-09-15T10:06:22.225Z,16.16
2022-09-15T10:08:23.740Z,16.22
2022-09-15T10:10:28.803Z,16.29
2022-09-15T10:12:49.535Z,16.34
2022-09-15T10:14:54.320Z,16.33
2022-09-15T10:17:07.695Z,16.39
2022-09-15T10:19:14.049Z,16.45
2022-09-15T10:21:15.974Z,16.48
2022-09-15T10:23:17.608Z,16.50
2022-09-15T10:25:19.186Z,16.53
2022-09-15T10:27:27.539Z,16.56
2022-09-15T10:29:39.071Z,16.59
2022-09-15T10:31:41.523Z,16.66
2022-09-15T10:33:47.825Z,16.78
2022-09-15T10:35:49.579Z,16.84
2022-09-15T10:38:12.075Z,16.88
2022-09-15T10:40:33.628Z,16.90
2022-09-15T10:42:50.310Z,16.99
2022-09-15T10:45:08.853Z,17.05
2022-09-15T10:47:12.906Z,17.14
2022-09-15T10:49:14.295Z,17.30
2022-09-15T10:51:31.056Z,17.63
2022-09-15T10:54:03.269Z,18.07
2022-09-15T10:56:24.136Z,18.50
2022-09-15T10:58:52.998Z,18.79
2022-09-15T11:01:03.329Z,19.06
2022-09-15T11:03:16.733Z,19.21
2022-09-15T11:05:42.525Z,19.58
2022-09-15T11:08:20.754Z,19.95
2022-09-15T11:10:32.654Z,20.03
2022-09-15T11:12:34.034Z,20.17
2022-09-15T11:15:07.216Z,20.38
2022-09-15T11:17:55.019Z,20.29
2022-09-15T11:20:25.344Z,19.92
2022-09-15T11:22:38.585Z,19.79
2022-09-15T11:25:22.157Z,19.84
2022-09-15T11:27:31.356Z,19.55
2022-09-15T11:30:03.231Z,18.47
2022-09-15T11:32:13.493Z,17.63
2022-09-15T11:34:44.124Z,17.04
2022-09-15T11:37:09.091Z,16.46
2022-09-15T11:39:22.437Z,16.03
2022-09-15T11:41:36.095Z,15.94
2022-09-15T11:43:46.071Z,15.99
2022-09-15T11:45:54.597Z,16.06
2022-09-15T11:48:06.862Z,16.08
2022-09-15T11:50:11.292Z,16.09
2022-09-15T11:52:26.864Z,16.03
2022-09-15T11:54:41.801Z,15.97
2022-09-15T11:56:47.511Z,15.98
2022-09-15T11:59:27.580Z,16.00
2022-09-15T12:01:59.572Z,15.95
2022-09-15T12:04:30.512Z,15.93
2022-09-15T12:06:35.165Z,16.08
2022-09-15T12:08:44.235Z,16.32
2022-09-15T12:10:52.303Z,16.48
2022-09-15T12:12:54.038Z,16.62
2022-09-15T12:14:56.587Z,16.71
2022-09-15T12:16:59.074Z,16.79
2022-09-15T12:19:12.743Z,16.86
2022-09-15T12:21:34.169Z,16.93
2022-09-15T12:23:44.633Z,16.99
2022-09-15T12:26:34.464Z,16.95
2022-09-15T12:28:42.438Z,16.95
2022-09-15T12:30:44.019Z,17.04
2022-09-15T12:32:45.505Z,17.18
2022-09-15T12:34:59.226Z,17.23
2022-09-15T12:37:11.538Z,17.10
2022-09-15T12:39:18.865Z,16.87
2022-09-15T12:41:20.341Z,16.78
2022-09-15T12:43:23.525Z,16.80
2022-09-15T12:45:29.289Z,16.78
2022-09-15T12:47:38.831Z,16.79
2022-09-15T12:49:45.457Z,16.77
2022-09-15T12:51:50.819Z,16.72
2022-09-15T12:53:59.611Z,16.45
2022-09-15T12:56:05.469Z,16.25
2022-09-15T12:58:18.536Z,16.09
2022-09-15T13:00:23.353Z,15.98
2022-09-15T13:02:57.497Z,15.94
2022-09-15T13:04:58.990Z,15.87
2022-09-15T13:07:15.667Z,15.81
2022-09-15T13:09:28.227Z,15.77
2022-09-15T13:11:38.739Z,15.72
2022-09-15T13:13:47.448Z,15.60
2022-09-15T13:15:50.759Z,15.42
2022-09-15T13:17:52.718Z,15.43
2022-09-15T13:19:59.797Z,15.44
2022-09-15T13:22:27.149Z,15.39
2022-09-15T13:24:46.549Z,15.37
2022-09-15T13:26:54.650Z,15.27
2022-09-15T13:28:57.946Z,15.21
2022-09-15T13:31:10.804Z,15.17
2022-09-15T13:39:05.363Z,15.12
2022-09-15T13:41:28.472Z,15.16
2022-09-15T13:43:45.376Z,15.22
2022-09-15T13:46:19.191Z,15.32
2022-09-15T13:48:32.564Z,15.43
2022-09-15T13:50:40.377Z,15.51
2022-09-15T13:52:41.740Z,15.55
2022-09-15T13:55:12.317Z,15.58
2022-09-15T13:57:14.354Z,15.65
2022-09-15T13:59:24.663Z,15.68
2022-09-15T14:01:26.869Z,15.74
2022-09-15T14:03:43.534Z,15.79
2022-09-15T14:05:45.548Z,15.86
2022-09-15T14:07:59.124Z,15.92
2022-09-15T14:10:02.867Z,15.87
2022-09-15T14:12:14.950Z,15.85
2022-09-15T14:14:28.455Z,15.79
2022-09-15T14:16:36.864Z,15.79
2022-09-15T14:18:44.305Z,15.79
2022-09-15T14:20:58.352Z,15.80
2022-09-15T14:23:00.484Z,15.79
2022-09-15T14:25:16.602Z,15.75
2022-09-15T14:27:24.807Z,15.76
2022-09-15T14:29:27.140Z,15.75
2022-09-15T14:31:35.632Z,15.72
2022-09-15T14:33:40.394Z,15.68
2022-09-15T14:35:42.005Z,15.59
2022-09-15T14:37:49.387Z,15.56
2022-09-15T14:40:00.216Z,15.53
2022-09-15T14:42:21.151Z,15.53
2022-09-15T14:46:59.117Z,15.58
2022-09-15T14:49:14.072Z,15.60
2022-09-15T14:51:25.108Z,15.63
2022-09-15T14:53:28.164Z,15.63
2022-09-15T14:56:04.322Z,15.61
2022-09-15T14:58:29.392Z,15.54
2022-09-15T15:00:52.565Z,15.55
2022-09-15T15:03:14.862Z,15.54
2022-09-15T15:05:35.662Z,15.56
2022-09-15T15:07:39.052Z,15.59
2022-09-15T15:09:48.099Z,15.64
2022-09-15T15:11:57.634Z,15.64
2022-09-15T15:13:59.734Z,15.67
2022-09-15T15:16:01.433Z,15.74
2022-09-15T15:18:05.996Z,15.76
2022-09-15T15:20:10.403Z,15.80
2022-09-15T15:22:11.907Z,15.84
2022-09-15T15:24:13.337Z,15.85
2022-09-15T15:26:29.798Z,15.84
2022-09-15T15:28:37.108Z,15.85
2022-09-15T15:30:46.785Z,15.84
2022-09-15T15:32:48.284Z,15.86
2022-09-15T15:34:55.907Z,15.86
2022-09-15T15:37:06.470Z,15.83
2022-09-15T15:39:19.181Z,15.82
2022-09-15T15:41:24.591Z,15.81
2022-09-15T15:43:27.206Z,15.79
2022-09-15T15:45:31.335Z,15.79
2022-09-15T15:47:36.810Z,15.82
2022-09-15T15:49:46.298Z,15.81
2022-09-15T15:51:59.497Z,15.80
2022-09-15T15:54:00.961Z,15.74
2022-09-15T15:56:02.636Z,15.66
2022-09-15T15:58:05.094Z,15.61
2022-09-15T16:00:47.815Z,15.54
2022-09-15T16:02:51.070Z,15.47
2022-09-15T16:04:52.650Z,15.38
2022-09-15T16:06:54.167Z,15.34
2022-09-15T16:08:58.254Z,15.31
2022-09-15T16:11:03.036Z,15.26
2022-09-15T16:13:04.534Z,15.20
2022-09-15T16:15:15.782Z,15.17
2022-09-15T16:17:17.199Z,15.04
2022-09-15T16:19:18.629Z,14.96
2022-09-15T16:21:36.860Z,14.85
2022-09-15T16:23:38.601Z,14.73
2022-09-15T16:25:49.099Z,14.71
2022-09-15T16:27:50.610Z,14.65
2022-09-15T16:29:52.090Z,14.55
2022-09-15T16:31:53.771Z,14.53
2022-09-15T16:33:55.222Z,14.48
2022-09-15T16:36:08.355Z,14.42
2022-09-15T16:38:09.857Z,14.33
2022-09-15T16:40:11.419Z,14.25
2022-09-15T16:42:12.913Z,14.22
2022-09-15T16:44:19.836Z,14.21
2022-09-15T16:46:21.708Z,14.19
2022-09-15T16:48:23.258Z,14.19
2022-09-15T16:50:25.230Z,14.18
2022-09-15T16:52:26.648Z,14.14
2022-09-15T16:54:28.140Z,14.14
2022-09-15T16:56:29.589Z,14.12
2022-09-15T16:58:31.215Z,14.05
2022-09-15T17:00:37.287Z,14.07
2022-09-15T17:02:38.830Z,14.07
2022-09-15T17:04:40.288Z,14.06
2022-09-15T17:06:42.281Z,14.04
2022-09-15T17:08:44.505Z,14.02
2022-09-15T17:10:47.104Z,14.03
2022-09-15T17:12:49.038Z,14.02
2022-09-15T17:14:50.468Z,14.02
2022-09-15T17:16:52.953Z,14.05
2022-09-15T17:18:54.387Z,14.08
2022-09-15T17:20:56.813Z,14.08
2022-09-15T17:22:58.309Z,14.07
2022-09-15T17:25:00.922Z,14.06
2022-09-15T17:27:02.350Z,14.06
2022-09-15T17:29:03.816Z,14.03
2022-09-15T17:31:07.164Z,13.98
2022-09-15T17:33:13.502Z,13.96
2022-09-15T17:35:17.212Z,13.91
2022-09-15T17:37:18.659Z,13.87
2022-09-15T17:39:21.139Z,13.88
2022-09-15T17:41:22.841Z,13.86
2022-09-15T17:43:26.608Z,13.86
2022-09-15T17:45:32.389Z,13.85
2022-09-15T17:47:34.221Z,13.85
2022-09-15T17:49:35.641Z,13.84
2022-09-15T17:51:37.086Z,13.81
2022-09-15T17:53:38.698Z,13.79
2022-09-15T17:55:40.690Z,13.75
2022-09-15T17:57:42.207Z,13.74
2022-09-15T17:59:43.620Z,13.72
2022-09-15T18:01:45.227Z,13.69
2022-09-15T18:03:46.832Z,13.69
2022-09-15T18:05:48.636Z,13.65
2022-09-15T18:07:51.710Z,13.62
2022-09-15T18:09:53.188Z,13.58
2022-09-15T18:14:00.938Z,13.51
2022-09-15T18:16:10.136Z,13.47
2022-09-15T18:18:21.193Z,13.43
2022-09-15T18:20:25.056Z,13.39
2022-09-15T18:22:26.479Z,13.39
2022-09-15T18:24:28.487Z,13.34
2022-09-15T18:26:30.063Z,13.34
2022-09-15T18:28:31.598Z,13.33
2022-09-15T18:30:40.681Z,13.28
2022-09-15T18:32:42.441Z,13.26
2022-09-15T18:34:43.930Z,13.27
2022-09-15T18:36:45.360Z,13.28
2022-09-15T18:38:46.820Z,13.26
2022-09-15T18:40:53.168Z,13.26
2022-09-15T18:42:56.481Z,13.22
2022-09-15T18:44:57.937Z,13.17
2022-09-15T18:47:00.121Z,13.15
2022-09-15T18:49:03.017Z,13.14
2022-09-15T18:51:08.236Z,13.10
2022-09-15T18:53:10.321Z,13.05
2022-09-15T18:55:15.224Z,13.07
2022-09-15T18:57:16.843Z,13.08
2022-09-15T18:59:18.346Z,13.06
2022-09-15T19:01:20.434Z,13.02
2022-09-15T19:03:21.938Z,12.98
2022-09-15T19:05:23.808Z,12.98
2022-09-15T19:07:28.393Z,12.97
2022-09-15T19:09:30.555Z,12.94
2022-09-15T19:11:32.060Z,12.92
2022-09-15T19:13:35.577Z,12.90
2022-09-15T19:15:39.505Z,12.88
2022-09-15T19:17:41.971Z,12.86
2022-09-15T19:19:43.503Z,12.84
2022-09-15T19:21:44.976Z,12.82
2022-09-15T19:23:46.417Z,12.81
2022-09-15T19:25:47.832Z,12.78
2022-09-15T19:27:49.301Z,12.79
2022-09-15T19:29:50.776Z,12.80
2022-09-15T19:31:52.210Z,12.80
2022-09-15T19:33:53.737Z,12.79
2022-09-15T19:36:05.231Z,12.80
2022-09-15T19:38:16.648Z,12.78
2022-09-15T19:40:18.213Z,12.79
2022-09-15T19:42:19.717Z,12.79
2022-09-15T19:44:21.182Z,12.78
2022-09-15T19:46:24.966Z,12.77
2022-09-15T19:48:26.913Z,12.76
2022-09-15T19:50:28.435Z,12.76
2022-09-15T19:52:29.872Z,12.76
2022-09-15T19:54:31.330Z,12.81
2022-09-15T19:56:32.989Z,12.81
2022-09-15T19:58:34.442Z,12.80
2022-09-15T20:00:35.868Z,12.80
2022-09-15T20:02:37.484Z,12.81
2022-09-15T20:04:40.132Z,12.84
2022-09-15T20:06:42.098Z,12.83
2022-09-15T20:08:45.531Z,12.83
2022-09-15T20:10:48.548Z,12.83
2022-09-15T20:12:50.006Z,12.83
2022-09-15T20:14:51.858Z,12.82
2022-09-15T20:16:55.147Z,12.82
2022-09-15T20:18:58.938Z,12.83
2022-09-15T20:21:03.336Z,12.82
2022-09-15T20:23:05.102Z,12.81
2022-09-15T20:25:06.778Z,12.80
2022-09-15T20:27:08.918Z,12.79
2022-09-15T20:29:10.787Z,12.82
2022-09-15T20:31:16.084Z,12.81
2022-09-15T20:33:17.571Z,12.81
2022-09-15T20:35:19.003Z,12.79
2022-09-15T20:37:22.227Z,12.79
2022-09-15T20:39:24.327Z,12.78
2022-09-15T20:41:27.224Z,12.79
2022-09-15T20:43:28.718Z,12.76
2022-09-15T20:45:32.831Z,12.75
2022-09-15T20:47:37.955Z,12.74
2022-09-15T20:49:39.412Z,12.69
2022-09-15T20:51:40.972Z,12.69
2022-09-15T20:53:47.880Z,12.67
2022-09-15T20:55:50.429Z,12.64
2022-09-15T20:57:51.888Z,12.60
2022-09-15T20:59:53.335Z,12.58
2022-09-15T21:01:54.940Z,12.55
2022-09-15T21:03:56.496Z,12.50
2022-09-15T21:06:00.422Z,12.49
2022-09-15T21:08:02.102Z,12.46
2022-09-15T21:10:03.643Z,12.46
2022-09-15T21:12:05.790Z,12.43
2022-09-15T21:14:07.552Z,12.39
2022-09-15T21:16:11.866Z,12.38
2022-09-15T21:18:13.349Z,12.35
2022-09-15T21:20:15.166Z,12.34
2022-09-15T21:22:16.585Z,12.33
2022-09-15T21:24:18.017Z,12.34
2022-09-15T21:26:21.660Z,12.33
2022-09-15T21:28:23.148Z,12.32
2022-09-15T21:30:24.581Z,12.31
2022-09-15T21:32:26.033Z,12.32
2022-09-15T21:34:28.453Z,12.32
2022-09-15T21:36:31.142Z,12.33
2022-09-15T21:38:37.373Z,12.32
2022-09-15T21:40:38.789Z,12.33
2022-09-15T21:42:40.193Z,12.33
2022-09-15T21:44:41.720Z,12.29
2022-09-15T21:46:44.861Z,12.27
2022-09-15T21:48:47.461Z,12.27
2022-09-15T21:50:52.954Z,12.23
2022-09-15T21:52:54.717Z,12.23
2022-09-15T21:54:56.154Z,12.20
2022-09-15T21:56:58.037Z,12.17
2022-09-15T21:59:01.589Z,12.14
2022-09-15T22:01:20.938Z,12.12
2022-09-15T22:03:22.448Z,12.09
2022-09-15T22:05:23.878Z,12.05
2022-09-15T22:07:25.345Z,12.05
2022-09-15T22:09:26.758Z,12.04
2022-09-15T22:11:28.723Z,12.03
2022-09-15T22:13:30.231Z,12.03
2022-09-15T22:15:32.446Z,12.00
2022-09-15T22:17:33.889Z,11.97
2022-09-15T22:19:35.399Z,11.93
2022-09-15T22:21:41.488Z,11.90
2022-09-15T22:23:44.331Z,11.89
2022-09-15T22:25:45.810Z,11.86
2022-09-15T22:27:47.254Z,11.85
2022-09-15T22:29:48.766Z,11.83
2022-09-15T22:31:50.302Z,11.83
2022-09-15T22:33:52.641Z,11.82
2022-09-15T22:35:54.474Z,11.80
2022-09-15T22:37:55.931Z,11.79
2022-09-15T22:39:59.289Z,11.79
2022-09-15T22:42:00.996Z,11.78
2022-09-15T22:44:03.536Z,11.78
2022-09-15T22:46:06.032Z,11.77
2022-09-15T22:48:07.624Z,11.75
2022-09-15T22:50:09.265Z,11.77
2022-09-15T22:52:11.003Z,11.76
2022-09-15T22:54:12.485Z,11.78
2022-09-15T22:56:19.704Z,11.77
2022-09-15T22:58:21.270Z,11.76
2022-09-15T23:00:23.358Z,11.75
2022-09-15T23:02:24.890Z,11.74
2022-09-15T23:04:26.510Z,11.74
2022-09-15T23:06:31.085Z,11.73
2022-09-15T23:08:33.743Z,11.73
2022-09-15T23:10:35.232Z,11.73
2022-09-15T23:12:36.665Z,11.72
2022-09-15T23:14:38.133Z,11.73
2022-09-15T23:16:40.089Z,11.71
2022-09-15T23:18:41.733Z,11.70
2022-09-15T23:20:44.754Z,11.70
2022-09-15T23:22:46.233Z,11.70
2022-09-15T23:24:48.056Z,11.69
2022-09-15T23:26:49.651Z,11.68
2022-09-15T23:28:51.191Z,11.68
2022-09-15T23:30:54.513Z,11.68
2022-09-15T23:32:56.006Z,11.67
2022-09-15T23:34:57.455Z,11.65
2022-09-15T23:36:59.032Z,11.63
2022-09-15T23:39:00.502Z,11.62
2022-09-15T23:41:02.091Z,11.61
2022-09-15T23:43:03.536Z,11.60
2022-09-15T23:45:05.557Z,11.60
2022-09-15T23:47:07.134Z,11.58
2022-09-15T23:49:08.707Z,11.57
2022-09-15T23:51:10.301Z,11.55
2022-09-15T23:53:12.379Z,11.54
2022-09-15T23:55:13.854Z,11.54
2022-09-15T23:57:15.289Z,11.52
2022-09-15T23:59:16.755Z,11.52
